createdAt,value
2024-01-06T00:00:28.316Z,56.31
2024-01-06T00:02:55.819Z,56.32
2024-01-06T00:05:23.276Z,56.03
2024-01-06T00:07:50.879Z,56.11
2024-01-06T00:10:18.548Z,56.21
2024-01-06T00:12:46.309Z,56.14
2024-01-06T00:15:13.856Z,55.89
2024-01-06T00:17:41.361Z,56.01
2024-01-06T00:20:09.237Z,55.96
2024-01-06T00:22:36.974Z,56.11
2024-01-06T00:25:04.601Z,56.77
2024-01-06T00:27:32.037Z,56.44
2024-01-06T00:29:59.480Z,56.03
2024-01-06T00:32:26.891Z,55.88
2024-01-06T00:34:54.906Z,56.21
2024-01-06T00:37:22.333Z,56.58
2024-01-06T00:39:50.350Z,56.98
2024-01-06T00:42:17.830Z,57.25
2024-01-06T00:44:46.718Z,57.94
2024-01-06T00:47:14.173Z,57.35
2024-01-06T00:49:41.772Z,57.19
2024-01-06T00:52:09.280Z,57.15
2024-01-06T00:54:36.672Z,57.00
2024-01-06T00:57:04.576Z,57.25
2024-01-06T00:59:31.974Z,56.81
2024-01-06T01:01:59.436Z,56.55
2024-01-06T01:04:27.339Z,57.10
2024-01-06T01:06:54.992Z,56.52
2024-01-06T01:09:22.470Z,56.46
2024-01-06T01:11:49.900Z,56.19
2024-01-06T01:14:19.674Z,56.43
2024-01-06T01:16:47.087Z,56.58
2024-01-06T01:19:14.901Z,56.08
2024-01-06T01:21:42.356Z,56.04
2024-01-06T01:24:09.838Z,56.10
2024-01-06T01:26:37.306Z,55.88
2024-01-06T01:29:04.725Z,55.92
2024-01-06T01:31:32.216Z,55.96
2024-01-06T01:33:59.829Z,56.18
2024-01-06T01:36:27.355Z,56.25
2024-01-06T01:38:54.832Z,56.23
2024-01-06T01:41:22.216Z,56.35
2024-01-06T01:43:49.620Z,56.10
2024-01-06T01:46:17.025Z,55.87
2024-01-06T01:48:44.718Z,56.27
2024-01-06T01:51:12.198Z,56.34
2024-01-06T01:53:39.594Z,56.39
2024-01-06T01:56:07.117Z,56.81
2024-01-06T01:58:34.500Z,57.26
2024-01-06T02:01:02.099Z,57.37
2024-01-06T02:03:30.630Z,57.18
2024-01-06T02:05:58.067Z,57.23
2024-01-06T02:08:25.772Z,57.49
2024-01-06T02:10:54.196Z,57.64
2024-01-06T02:13:21.688Z,58.32
2024-01-06T02:15:49.123Z,58.48
2024-01-06T02:18:16.710Z,58.34
2024-01-06T02:20:44.406Z,58.29
2024-01-06T02:23:11.781Z,58.26
2024-01-06T02:25:39.145Z,58.24
2024-01-06T02:28:06.687Z,58.23
2024-01-06T02:30:34.156Z,58.05
2024-01-06T02:33:01.862Z,58.20
2024-01-06T02:35:29.323Z,58.51
2024-01-06T02:37:56.707Z,58.22
2024-01-06T02:40:24.096Z,58.53
2024-01-06T02:42:51.670Z,58.82
2024-01-06T02:45:19.226Z,58.47
2024-01-06T02:47:46.742Z,59.03
2024-01-06T02:50:14.177Z,58.76
2024-01-06T02:52:41.547Z,58.67
2024-01-06T02:55:08.924Z,58.65
2024-01-06T02:57:37.124Z,58.38
2024-01-06T03:00:04.679Z,58.40
2024-01-06T03:02:32.064Z,58.73
2024-01-06T03:04:59.494Z,59.21
2024-01-06T03:07:26.982Z,59.30
2024-01-06T03:09:54.446Z,59.63
2024-01-06T03:12:21.931Z,59.24
2024-01-06T03:14:49.351Z,59.01
2024-01-06T03:17:16.729Z,58.80
2024-01-06T03:19:44.939Z,58.89
2024-01-06T03:22:12.462Z,58.90
2024-01-06T03:24:41.103Z,59.00
2024-01-06T03:27:10.135Z,59.36
2024-01-06T03:29:37.617Z,59.29
2024-01-06T03:32:05.231Z,59.30
2024-01-06T03:34:32.796Z,59.14
2024-01-06T03:37:00.261Z,59.08
2024-01-06T03:39:27.719Z,59.51
2024-01-06T03:41:55.145Z,59.54
2024-01-06T03:44:22.515Z,60.03
2024-01-06T03:46:49.945Z,59.80
2024-01-06T03:49:19.868Z,59.48
2024-01-06T03:51:47.359Z,59.18
2024-01-06T03:54:14.794Z,59.31
2024-01-06T03:56:42.181Z,59.63
2024-01-06T03:59:09.640Z,59.77
2024-01-06T04:01:37.301Z,59.95
2024-01-06T04:04:05.017Z,59.81
2024-01-06T04:06:33.166Z,59.80
2024-01-06T04:09:01.083Z,59.86
2024-01-06T04:11:28.484Z,60.05
2024-01-06T04:13:55.911Z,60.86
2024-01-06T04:16:23.313Z,60.31
2024-01-06T04:18:51.553Z,59.84
2024-01-06T04:21:19.094Z,59.75
2024-01-06T04:23:46.526Z,60.27
2024-01-06T04:26:14.426Z,60.08
2024-01-06T04:28:41.848Z,59.86
2024-01-06T04:31:12.023Z,59.82
2024-01-06T04:33:41.806Z,60.39
2024-01-06T04:36:09.505Z,60.98
2024-01-06T04:38:37.015Z,60.85
2024-01-06T04:41:04.445Z,60.59
2024-01-06T04:43:31.856Z,59.98
2024-01-06T04:45:59.516Z,59.62
2024-01-06T04:48:27.153Z,59.95
2024-01-06T04:50:54.736Z,60.35
2024-01-06T04:53:22.111Z,60.18
2024-01-06T04:55:49.536Z,60.53
2024-01-06T04:58:16.950Z,60.43
2024-01-06T05:00:44.415Z,60.55
2024-01-06T05:03:11.950Z,61.01
2024-01-06T05:05:39.573Z,60.58
2024-01-06T05:08:07.228Z,60.83
2024-01-06T05:10:34.644Z,60.68
2024-01-06T05:13:02.123Z,60.72
2024-01-06T05:15:29.572Z,60.66
2024-01-06T05:17:57.147Z,60.75
2024-01-06T05:20:24.639Z,61.04
2024-01-06T05:22:52.074Z,60.69
2024-01-06T05:25:20.376Z,60.49
2024-01-06T05:27:47.811Z,60.61
2024-01-06T05:30:15.377Z,60.20
2024-01-06T05:32:42.886Z,60.92
2024-01-06T05:35:10.396Z,60.73
2024-01-06T05:37:37.840Z,60.68
2024-01-06T05:40:06.626Z,60.33
2024-01-06T05:42:34.279Z,60.59
2024-01-06T05:45:01.747Z,60.37
2024-01-06T05:47:29.390Z,60.42
2024-01-06T05:49:56.865Z,59.82
2024-01-06T05:52:24.790Z,59.49
2024-01-06T05:54:52.275Z,59.20
2024-01-06T05:57:19.923Z,59.66
2024-01-06T05:59:47.386Z,59.26
2024-01-06T06:02:14.979Z,58.88
2024-01-06T06:04:42.513Z,58.92
2024-01-06T06:07:10.058Z,59.36
2024-01-06T06:09:39.181Z,59.71
2024-01-06T06:12:06.786Z,59.99
2024-01-06T06:14:34.203Z,59.55
2024-01-06T06:17:01.617Z,59.35
2024-01-06T06:19:29.179Z,59.39
2024-01-06T06:21:56.674Z,59.11
2024-01-06T06:24:24.184Z,58.96
2024-01-06T06:26:51.604Z,58.38
2024-01-06T06:29:19.039Z,59.01
2024-01-06T06:31:47.950Z,59.25
2024-01-06T06:34:15.643Z,59.58
2024-01-06T06:36:43.316Z,59.98
2024-01-06T06:39:10.855Z,60.08
2024-01-06T06:41:38.276Z,60.16
2024-01-06T06:44:05.829Z,60.52
2024-01-06T06:46:33.237Z,60.29
2024-01-06T06:49:00.753Z,60.36
2024-01-06T06:51:28.913Z,60.16
2024-01-06T06:53:56.494Z,59.88
2024-01-06T06:56:23.851Z,59.87
2024-01-06T06:58:51.249Z,60.07
2024-01-06T07:01:18.768Z,59.75
2024-01-06T07:03:46.313Z,59.76
2024-01-06T07:06:14.286Z,59.46
2024-01-06T07:08:43.306Z,60.34
2024-01-06T07:11:12.747Z,59.67
2024-01-06T07:13:40.727Z,59.39
2024-01-06T07:16:17.686Z,59.71
2024-01-06T07:18:47.400Z,59.07
2024-01-06T07:21:15.264Z,59.90
2024-01-06T07:23:43.799Z,59.84
2024-01-06T07:26:11.221Z,59.80
2024-01-06T07:28:38.632Z,59.65
2024-01-06T07:31:06.718Z,59.55
2024-01-06T07:33:34.481Z,59.45
2024-01-06T07:36:02.199Z,59.37
2024-01-06T07:38:32.194Z,59.22
2024-01-06T07:40:59.801Z,59.08
2024-01-06T07:43:27.239Z,59.13
2024-01-06T07:45:54.888Z,58.94
2024-01-06T07:48:22.775Z,59.43
2024-01-06T07:50:50.923Z,59.71
2024-01-06T07:53:18.315Z,59.96
2024-01-06T07:55:45.742Z,60.09
2024-01-06T07:58:13.500Z,59.89
2024-01-06T08:00:41.227Z,60.50
2024-01-06T08:03:08.785Z,60.16
2024-01-06T08:05:36.204Z,60.06
2024-01-06T08:08:05.302Z,60.48
2024-01-06T08:10:32.682Z,60.88
2024-01-06T08:13:00.426Z,60.57
2024-01-06T08:15:28.008Z,60.87
2024-01-06T08:17:55.610Z,60.57
2024-01-06T08:20:23.167Z,61.14
2024-01-06T08:22:50.615Z,61.34
2024-01-06T08:25:18.587Z,60.94
2024-01-06T08:27:46.004Z,60.05
2024-01-06T08:30:13.798Z,60.56
2024-01-06T08:32:41.442Z,61.05
2024-01-06T08:35:09.416Z,60.97
2024-01-06T08:37:36.821Z,60.70
2024-01-06T08:40:06.051Z,60.16
2024-01-06T08:42:33.621Z,60.23
2024-01-06T08:45:01.114Z,60.50
2024-01-06T08:47:28.534Z,59.98
2024-01-06T08:49:56.126Z,59.83
2024-01-06T08:52:23.587Z,59.61
2024-01-06T08:54:51.271Z,59.60
2024-01-06T08:57:19.361Z,59.12
2024-01-06T08:59:46.943Z,59.07
2024-01-06T09:02:14.391Z,59.53
2024-01-06T09:04:41.809Z,60.05
2024-01-06T09:07:09.508Z,59.79
2024-01-06T09:09:36.957Z,60.06
2024-01-06T09:12:04.618Z,59.16
2024-01-06T09:14:32.006Z,59.60
2024-01-06T09:16:59.506Z,59.66
2024-01-06T09:19:29.500Z,59.03
2024-01-06T09:21:57.069Z,59.22
2024-01-06T09:24:24.548Z,59.89
2024-01-06T09:26:52.758Z,59.20
2024-01-06T09:29:20.191Z,59.08
2024-01-06T09:31:47.699Z,58.86
2024-01-06T09:34:15.302Z,59.44
2024-01-06T09:36:42.865Z,59.14
2024-01-06T09:39:10.335Z,59.58
2024-01-06T09:41:37.775Z,59.22
2024-01-06T09:44:05.290Z,59.19
2024-01-06T09:46:32.885Z,60.22
2024-01-06T09:49:00.870Z,59.44
2024-01-06T09:51:30.211Z,59.93
2024-01-06T09:53:58.720Z,59.73
2024-01-06T09:56:26.690Z,59.97
2024-01-06T09:58:54.203Z,59.70
2024-01-06T10:01:21.897Z,60.12
2024-01-06T10:03:49.578Z,60.61
2024-01-06T10:06:17.278Z,60.60
2024-01-06T10:08:51.134Z,60.62
2024-01-06T10:11:19.261Z,60.99
2024-01-06T10:13:46.703Z,60.33
2024-01-06T10:16:14.525Z,60.69
2024-01-06T10:18:42.269Z,61.88
2024-01-06T10:21:10.021Z,61.52
2024-01-06T10:23:37.862Z,61.11
2024-01-06T10:26:05.924Z,61.86
2024-01-06T10:28:34.027Z,61.15
2024-01-06T10:31:02.695Z,61.78
2024-01-06T10:33:30.627Z,61.40
2024-01-06T10:35:58.098Z,61.58
2024-01-06T10:38:26.792Z,61.45
2024-01-06T10:40:58.377Z,61.59
2024-01-06T10:43:30.304Z,62.10
2024-01-06T10:45:59.314Z,61.42
2024-01-06T10:48:27.771Z,60.97
2024-01-06T10:50:55.294Z,61.13
2024-01-06T10:53:24.010Z,61.77
2024-01-06T10:55:56.251Z,61.85
2024-01-06T10:58:24.132Z,62.11
2024-01-06T11:00:51.855Z,61.61
2024-01-06T11:03:19.645Z,61.40
2024-01-06T11:05:47.235Z,61.70
2024-01-06T11:08:14.703Z,61.91
2024-01-06T11:10:42.163Z,61.96
2024-01-06T11:13:13.478Z,61.67
2024-01-06T11:15:44.953Z,61.67
2024-01-06T11:18:42.622Z,61.88
2024-01-06T11:21:18.557Z,61.77
2024-01-06T11:23:46.410Z,62.28
2024-01-06T11:26:15.639Z,61.95
2024-01-06T11:28:46.906Z,61.72
2024-01-06T11:31:14.569Z,61.97
2024-01-06T11:33:45.094Z,61.82
2024-01-06T11:36:13.569Z,61.86
2024-01-06T11:38:41.176Z,62.38
2024-01-06T11:41:09.138Z,62.00
2024-01-06T11:43:40.372Z,61.99
2024-01-06T11:46:08.832Z,62.50
2024-01-06T11:48:36.787Z,62.79
2024-01-06T11:51:04.329Z,62.78
2024-01-06T11:53:31.765Z,63.07
2024-01-06T11:56:01.282Z,63.24
2024-01-06T11:58:29.910Z,62.66
2024-01-06T12:00:58.631Z,62.39
2024-01-06T12:03:27.785Z,62.68
2024-01-06T12:06:02.832Z,62.96
2024-01-06T12:08:30.600Z,62.89
2024-01-06T12:11:04.555Z,62.84
2024-01-06T12:13:32.296Z,62.87
2024-01-06T12:15:59.789Z,63.11
2024-01-06T12:18:27.209Z,63.25
2024-01-06T12:20:54.614Z,63.28
2024-01-06T12:23:29.104Z,63.52
2024-01-06T12:25:56.943Z,63.62
2024-01-06T12:28:24.524Z,62.77
2024-01-06T12:30:51.983Z,62.72
2024-01-06T12:33:19.597Z,63.28
2024-01-06T12:35:47.097Z,63.44
2024-01-06T12:38:14.529Z,63.77
2024-01-06T12:40:42.341Z,63.22
2024-01-06T12:43:10.093Z,62.80
2024-01-06T12:45:37.531Z,63.57
2024-01-06T12:48:05.229Z,63.86
2024-01-06T12:50:32.683Z,64.50
2024-01-06T12:53:00.090Z,64.31
2024-01-06T12:55:27.515Z,64.12
2024-01-06T12:57:54.949Z,64.35
2024-01-06T13:00:22.429Z,65.14
2024-01-06T13:02:49.834Z,65.84
2024-01-06T13:05:17.324Z,65.59
2024-01-06T13:07:44.796Z,65.76
2024-01-06T13:10:12.327Z,66.83
2024-01-06T13:12:39.787Z,67.15
2024-01-06T13:15:08.016Z,67.26
2024-01-06T13:17:35.496Z,66.95
2024-01-06T13:20:03.164Z,66.74
2024-01-06T13:22:31.588Z,66.64
2024-01-06T13:25:00.346Z,66.62
2024-01-06T13:27:30.901Z,66.79
2024-01-06T13:29:58.330Z,66.98
2024-01-06T13:32:28.246Z,66.99
2024-01-06T13:34:59.389Z,67.91
2024-01-06T13:37:27.019Z,68.54
2024-01-06T13:39:54.489Z,69.09
2024-01-06T13:42:22.812Z,69.75
2024-01-06T13:44:50.300Z,69.84
2024-01-06T13:47:17.766Z,70.23
2024-01-06T13:49:45.363Z,70.58
2024-01-06T13:52:12.814Z,70.50
2024-01-06T13:54:40.225Z,70.77
2024-01-06T13:57:07.626Z,70.40
2024-01-06T13:59:38.565Z,70.27
2024-01-06T14:02:07.183Z,70.51
2024-01-06T14:04:34.716Z,71.45
2024-01-06T14:07:05.171Z,71.65
2024-01-06T14:09:32.960Z,71.85
2024-01-06T14:12:00.350Z,71.74
2024-01-06T14:14:27.743Z,71.99
2024-01-06T14:16:55.130Z,72.40
2024-01-06T14:19:22.580Z,72.57
2024-01-06T14:21:51.827Z,72.84
2024-01-06T14:24:24.705Z,72.93
2024-01-06T14:26:52.372Z,73.19
2024-01-06T14:29:19.806Z,72.87
2024-01-06T14:31:47.256Z,72.93
2024-01-06T14:34:15.170Z,73.22
2024-01-06T14:36:49.017Z,73.63
2024-01-06T14:39:19.795Z,73.51
2024-01-06T14:41:47.651Z,73.76
2024-01-06T14:44:15.190Z,73.73
2024-01-06T14:46:42.836Z,74.33
2024-01-06T14:49:10.454Z,74.48
2024-01-06T14:51:37.931Z,74.55
2024-01-06T14:54:05.711Z,74.62
2024-01-06T14:56:33.141Z,74.81
2024-01-06T14:59:00.619Z,75.06
2024-01-06T15:01:28.297Z,75.47
2024-01-06T15:03:55.866Z,75.48
2024-01-06T15:06:23.478Z,75.56
2024-01-06T15:08:50.993Z,75.52
2024-01-06T15:11:18.406Z,75.24
2024-01-06T15:13:46.644Z,75.58
2024-01-06T15:16:14.056Z,75.92
2024-01-06T15:18:41.573Z,76.02
2024-01-06T15:21:09.022Z,76.28
2024-01-06T15:23:36.403Z,76.19
2024-01-06T15:26:05.021Z,75.99
2024-01-06T15:28:33.961Z,76.37
2024-01-06T15:31:01.725Z,76.51
2024-01-06T15:33:29.391Z,77.16
2024-01-06T15:35:56.887Z,77.61
2024-01-06T15:38:24.283Z,78.17
2024-01-06T15:40:51.926Z,77.70
2024-01-06T15:43:19.465Z,78.11
2024-01-06T15:45:46.945Z,78.07
2024-01-06T15:48:14.429Z,77.74
2024-01-06T15:50:41.887Z,77.73
2024-01-06T15:53:09.319Z,78.04
2024-01-06T15:55:36.793Z,78.24
2024-01-06T15:58:04.322Z,77.80
2024-01-06T16:00:34.372Z,77.95
2024-01-06T16:03:03.772Z,78.71
2024-01-06T16:05:31.257Z,78.41
2024-01-06T16:07:58.705Z,77.86
2024-01-06T16:10:26.121Z,78.37
2024-01-06T16:12:53.534Z,78.43
2024-01-06T16:15:21.697Z,78.68
2024-01-06T16:17:49.737Z,78.86
2024-01-06T16:20:17.290Z,79.18
2024-01-06T16:22:47.342Z,78.44
2024-01-06T16:25:15.004Z,78.63
2024-01-06T16:27:42.532Z,78.60
2024-01-06T16:30:10.448Z,78.22
2024-01-06T16:32:37.843Z,78.12
2024-01-06T16:35:05.264Z,78.41
2024-01-06T16:37:32.755Z,78.15
2024-01-06T16:40:00.348Z,77.84
2024-01-06T16:42:28.156Z,77.82
2024-01-06T16:44:55.629Z,77.31
2024-01-06T16:47:23.133Z,77.57
2024-01-06T16:49:50.600Z,77.43
2024-01-06T16:52:18.056Z,77.68
2024-01-06T16:54:45.495Z,77.78
2024-01-06T16:57:12.905Z,77.58
2024-01-06T16:59:40.391Z,77.44
2024-01-06T17:02:08.299Z,76.75
2024-01-06T17:04:36.443Z,76.39
2024-01-06T17:07:05.679Z,76.36
2024-01-06T17:09:33.257Z,76.98
2024-01-06T17:12:00.756Z,77.29
2024-01-06T17:14:28.207Z,77.23
2024-01-06T17:16:55.880Z,77.07
2024-01-06T17:19:23.417Z,76.34
2024-01-06T17:21:50.965Z,76.16
2024-01-06T17:24:18.403Z,76.25
2024-01-06T17:26:45.797Z,75.83
2024-01-06T17:29:13.217Z,74.93
2024-01-06T17:31:40.884Z,74.97
2024-01-06T17:34:09.687Z,74.85
2024-01-06T17:36:37.438Z,74.71
2024-01-06T17:39:05.313Z,74.57
2024-01-06T17:41:37.806Z,74.61
2024-01-06T17:44:10.805Z,74.46
2024-01-06T17:46:38.240Z,74.46
2024-01-06T17:49:07.735Z,75.46
2024-01-06T17:51:35.889Z,75.18
2024-01-06T17:54:03.318Z,74.80
2024-01-06T17:56:30.819Z,74.48
2024-01-06T17:59:02.600Z,75.21
2024-01-06T18:01:30.235Z,75.22
2024-01-06T18:03:58.327Z,74.45
2024-01-06T18:06:26.332Z,73.78
2024-01-06T18:08:53.910Z,73.81
2024-01-06T18:11:21.318Z,74.17
2024-01-06T18:13:48.873Z,73.67
2024-01-06T18:16:16.356Z,73.99
2024-01-06T18:18:43.978Z,73.04
2024-01-06T18:21:11.511Z,73.57
2024-01-06T18:23:38.890Z,73.42
2024-01-06T18:26:06.291Z,73.73
2024-01-06T18:28:33.753Z,73.57
2024-01-06T18:31:01.223Z,73.14
2024-01-06T18:33:28.939Z,72.99
2024-01-06T18:35:56.433Z,72.95
2024-01-06T18:38:23.840Z,73.52
2024-01-06T18:40:51.270Z,73.72
2024-01-06T18:43:18.700Z,73.15
2024-01-06T18:45:46.160Z,73.06
2024-01-06T18:48:16.235Z,72.11
2024-01-06T18:50:45.566Z,72.50
2024-01-06T18:53:14.453Z,72.41
2024-01-06T18:55:41.940Z,72.74
2024-01-06T18:58:10.629Z,72.92
2024-01-06T19:00:38.282Z,73.13
2024-01-06T19:03:05.859Z,72.76
2024-01-06T19:05:34.635Z,72.90
2024-01-06T19:08:02.258Z,72.89
2024-01-06T19:10:29.654Z,73.73
2024-01-06T19:12:57.329Z,74.25
2024-01-06T19:15:25.145Z,74.42
2024-01-06T19:17:52.734Z,73.95
2024-01-06T19:20:20.246Z,74.50
2024-01-06T19:22:58.052Z,74.63
2024-01-06T19:25:33.969Z,74.02
2024-01-06T19:28:01.452Z,73.23
2024-01-06T19:30:28.958Z,73.21
2024-01-06T19:32:56.439Z,73.14
2024-01-06T19:35:23.835Z,72.82
2024-01-06T19:37:51.222Z,73.38
2024-01-06T19:40:19.700Z,73.36
2024-01-06T19:42:48.922Z,73.67
2024-01-06T19:45:16.449Z,72.97
2024-01-06T19:47:44.081Z,72.78
2024-01-06T19:50:11.635Z,72.29
2024-01-06T19:52:39.037Z,72.29
2024-01-06T19:55:07.577Z,73.10
2024-01-06T19:57:35.056Z,73.57
2024-01-06T20:00:04.816Z,74.67
2024-01-06T20:02:37.182Z,72.92
2024-01-06T20:05:06.376Z,72.60
2024-01-06T20:07:37.455Z,72.58
2024-01-06T20:10:05.201Z,72.44
2024-01-06T20:12:32.629Z,71.53
2024-01-06T20:15:00.053Z,71.09
2024-01-06T20:17:27.530Z,70.79
2024-01-06T20:19:55.395Z,70.63
2024-01-06T20:22:23.012Z,71.70
2024-01-06T20:24:50.723Z,72.31
2024-01-06T20:27:18.502Z,72.47
2024-01-06T20:29:45.957Z,72.67
2024-01-06T20:32:13.697Z,72.48
2024-01-06T20:34:41.657Z,72.53
2024-01-06T20:37:09.189Z,71.78
2024-01-06T20:39:36.608Z,71.62
2024-01-06T20:42:04.314Z,72.08
2024-01-06T20:44:31.913Z,72.22
2024-01-06T20:46:59.956Z,71.83
2024-01-06T20:49:29.687Z,71.27
2024-01-06T20:51:57.922Z,71.83
2024-01-06T20:54:25.531Z,71.68
2024-01-06T20:56:53.288Z,72.42
2024-01-06T20:59:20.695Z,73.13
2024-01-06T21:01:48.387Z,72.78
2024-01-06T21:04:16.033Z,73.05
2024-01-06T21:06:43.681Z,72.34
2024-01-06T21:09:11.065Z,71.82
2024-01-06T21:11:40.986Z,72.28
2024-01-06T21:14:09.701Z,73.03
2024-01-06T21:16:43.115Z,72.75
2024-01-06T21:19:10.615Z,73.18
2024-01-06T21:21:38.109Z,72.51
2024-01-06T21:24:05.611Z,72.22
2024-01-06T21:26:35.035Z,72.98
2024-01-06T21:29:02.468Z,72.34
2024-01-06T21:31:29.983Z,71.89
2024-01-06T21:33:57.507Z,71.88
2024-01-06T21:36:25.053Z,71.60
2024-01-06T21:38:52.478Z,71.57
2024-01-06T21:41:21.201Z,70.96
2024-01-06T21:43:48.675Z,70.64
2024-01-06T21:46:16.112Z,70.99
2024-01-06T21:48:43.654Z,72.22
2024-01-06T21:51:11.243Z,71.51
2024-01-06T21:53:38.669Z,71.20
2024-01-06T21:56:06.245Z,71.57
2024-01-06T21:58:33.693Z,71.14
2024-01-06T22:01:01.298Z,70.91
2024-01-06T22:03:28.860Z,70.94
2024-01-06T22:05:56.417Z,70.50
2024-01-06T22:08:23.889Z,69.94
2024-01-06T22:10:51.623Z,69.69
2024-01-06T22:13:19.067Z,69.18
2024-01-06T22:15:46.636Z,69.62
2024-01-06T22:18:14.170Z,69.44
2024-01-06T22:20:41.717Z,69.87
2024-01-06T22:23:09.138Z,69.54
2024-01-06T22:25:36.556Z,69.04
2024-01-06T22:28:04.631Z,69.02
2024-01-06T22:30:32.971Z,68.48
2024-01-06T22:33:02.299Z,67.92
2024-01-06T22:35:29.780Z,68.02
2024-01-06T22:37:57.188Z,68.94
2024-01-06T22:40:24.668Z,68.60
2024-01-06T22:42:52.190Z,68.18
2024-01-06T22:45:19.649Z,68.18
2024-01-06T22:47:47.152Z,69.01
2024-01-06T22:50:14.573Z,69.22
2024-01-06T22:52:42.052Z,68.66
2024-01-06T22:55:09.437Z,68.07
2024-01-06T22:57:38.130Z,67.90
2024-01-06T23:00:12.658Z,66.72
2024-01-06T23:02:40.134Z,67.05
2024-01-06T23:05:07.741Z,67.24
2024-01-06T23:07:35.190Z,67.22
2024-01-06T23:10:02.756Z,67.54
2024-01-06T23:12:30.235Z,67.09
2024-01-06T23:14:57.656Z,66.93
2024-01-06T23:17:25.074Z,66.73
2024-01-06T23:19:52.505Z,66.50
2024-01-06T23:22:19.927Z,67.16
2024-01-06T23:24:47.678Z,66.77
2024-01-06T23:27:15.150Z,66.09
2024-01-06T23:29:42.541Z,65.98
2024-01-06T23:32:09.948Z,66.20
2024-01-06T23:34:42.615Z,65.67
2024-01-06T23:37:11.223Z,65.57
2024-01-06T23:39:38.930Z,65.89
2024-01-06T23:42:06.618Z,65.81
2024-01-06T23:44:34.048Z,65.06
2024-01-06T23:47:01.557Z,64.15
2024-01-06T23:49:29.156Z,64.47
2024-01-06T23:51:56.739Z,65.05
2024-01-06T23:54:24.301Z,63.71
2024-01-06T23:56:51.772Z,62.93
2024-01-06T23:59:19.892Z,62.00
